Center Point, IA

7:05 PM CDT on July 06, 2015 (GMT -0500)
Southern Urbana | | Change Station
CLOSE
Current Station
Personal Weather Station
Location: Center Point, IA
Elevation: 899 ft
Nearby Weather Stations

Elev 899 ft 42.22 °N, 91.87 °W | Updated 4 minutes ago

Overcast
Overcast
73.5 °F
Feels Like 71 °F
N
13.0
Wind Variable Wind from WNW
Gusts 16.0 mph

Today
High -- | Low -- °F
--% Chance of Precip.
Yesterday
High -- | Low -- °F
Precip. -- in
5:37 AM 8:45 PM
Waning Gibbous, 71% visible
Pressure 29.87 in
Visibility 10.0 miles
Clouds Mostly Cloudy 1400 ft
Mostly Cloudy 2300 ft
Mostly Cloudy 4900 ft
Heat Index 71 °F
Dew Point 71 °F
Humidity 92%
Rainfall 0.43 in
Snow Depth Not available.
UV 1 out of 12
Pollen 2.10 out of 12
Air Quality Not available.
Flu Activity Not available.
METAR KVTI 062355Z AUTO 33012KT 10SM BKN014 BKN023 BKN049 24/21 A2987 RMK AO2 T02410211 10270 20241

More Conditions Fewer Conditions

Pressure 29.87 in
Visibility 10.0 miles
Clouds Mostly Cloudy 1400 ft
Mostly Cloudy 2300 ft
Mostly Cloudy 4900 ft
Heat Index 71 °F
Dew Point 71 °F
Humidity 92%
Rainfall 0.43 in
Snow Depth Not available.
UV 1 out of 12
Pollen 2.10 out of 12
Air Quality Not available.
Flu Activity Not available.
METAR KVTI 062355Z AUTO 33012KT 10SM BKN014 BKN023 BKN049 24/21 A2987 RMK AO2 T02410211 10270 20241

More Conditions Fewer Conditions

10-Day Weather Forecast

×

Almanac

Astronomy

Jul. 06, 2015 Rise Set
Actual Time
Civil Twilight
Nautical Twilight
Astronomical Twilight
Moon
Length of Visible Light
Length of Day
Tomorrow will be .
, % of the Moon is Illuminated

Today's Extremes

State Highs State Lows

Community

WunderPhotos

Upload Photos

1,835,692 photos uploaded!

WunderBlogs® & News

Nearby

Air Quality

  Air Quality AQ Index Pollutant
Not available.

Snow Depth

Station Depth Elevation

Earthquake Activity

City Distance Mag. Time & Date
Minimum magnitude displayed is 2.5.

Coastal Water Temperatures

Place Temperature

Stations

Nearby Weather Stations

Station Location Temp. Windchill Dew Point Humidity Wind Precip. Elev Updated Type